sensor_id;sensor_type;location;lat;lon;timestamp;pressure;altitude;pressure_sealevel;temperature;humidity
39209;BME280;24929;51.982;4.664;2023-02-14T00:01:46;78942.50;;;-143.36;nan
39209;BME280;24929;51.982;4.664;2023-02-14T00:04:11;78982.66;;;-143.36;nan
39209;BME280;24929;51.982;4.664;2023-02-14T00:06:37;78984.66;;;-143.36;nan
39209;BME280;24929;51.982;4.664;2023-02-14T00:09:04;78966.59;;;-143.36;nan
39209;BME280;24929;51.982;4.664;2023-02-14T00:11:30;78968.59;;;-143.36;nan
39209;BME280;24929;51.982;4.664;2023-02-14T00:13:56;78964.59;;;-143.36;nan
39209;BME280;24929;51.982;4.664;2023-02-14T00:16:40;79095.09;;;-143.36;nan
39209;BME280;24929;51.982;4.664;2023-02-14T00:19:05;79177.44;;;-143.36;nan
39209;BME280;24929;51.982;4.664;2023-02-14T00:21:36;79054.94;;;-143.36;nan
39209;BME280;24929;51.982;4.664;2023-02-14T00:24:12;79026.84;;;-143.36;nan
39209;BME280;24929;51.982;4.664;2023-02-14T00:26:38;79227.63;;;-143.36;nan
39209;BME280;24929;51.982;4.664;2023-02-14T00:29:06;79269.81;;;-143.36;nan
39209;BME280;24929;51.982;4.664;2023-02-14T00:31:32;79350.13;;;-143.36;nan
39209;BME280;24929;51.982;4.664;2023-02-14T00:33:58;79412.38;;;-143.36;nan
39209;BME280;24929;51.982;4.664;2023-02-14T00:36:23;79129.25;;;-143.36;nan
39209;BME280;24929;51.982;4.664;2023-02-14T00:38:49;79147.31;;;-143.36;nan
39209;BME280;24929;51.982;4.664;2023-02-14T00:41:14;79159.38;;;-143.36;nan
39209;BME280;24929;51.982;4.664;2023-02-14T00:43:52;79004.75;;;-143.36;nan
39209;BME280;24929;51.982;4.664;2023-02-14T00:46:19;79380.25;;;-143.36;nan
39209;BME280;24929;51.982;4.664;2023-02-14T00:48:46;79370.22;;;-143.36;nan
39209;BME280;24929;51.982;4.664;2023-02-14T00:51:13;79332.06;;;-143.36;nan
39209;BME280;24929;51.982;4.664;2023-02-14T00:53:39;79283.88;;;-143.36;nan
39209;BME280;24929;51.982;4.664;2023-02-14T00:56:05;79324.03;;;-143.36;nan
39209;BME280;24929;51.982;4.664;2023-02-14T00:58:30;79267.78;;;-143.36;nan
39209;BME280;24929;51.982;4.664;2023-02-14T01:00:57;79273.81;;;-143.36;nan
39209;BME280;24929;51.982;4.664;2023-02-14T01:03:23;79103.13;;;-143.36;nan
39209;BME280;24929;51.982;4.664;2023-02-14T01:05:48;79133.25;;;-143.36;nan
39209;BME280;24929;51.982;4.664;2023-02-14T01:08:14;79040.88;;;-143.36;nan
39209;BME280;24929;51.982;4.664;2023-02-14T01:10:40;79028.84;;;-143.36;nan
39209;BME280;24929;51.982;4.664;2023-02-14T01:13:05;79032.84;;;-143.36;nan
39209;BME280;24929;51.982;4.664;2023-02-14T01:15:32;79040.88;;;-143.36;nan
39209;BME280;24929;51.982;4.664;2023-02-14T01:17:58;79062.97;;;-143.36;nan
39209;BME280;24929;51.982;4.664;2023-02-14T01:20:24;79079.03;;;-143.36;nan
39209;BME280;24929;51.982;4.664;2023-02-14T01:22:50;79081.06;;;-143.36;nan
39209;BME280;24929;51.982;4.664;2023-02-14T01:25:15;79069.00;;;-143.36;nan
39209;BME280;24929;51.982;4.664;2023-02-14T01:27:41;79071.00;;;-143.36;nan
39209;BME280;24929;51.982;4.664;2023-02-14T01:30:07;79083.06;;;-143.36;nan
39209;BME280;24929;51.982;4.664;2023-02-14T01:32:32;79089.09;;;-143.36;nan
39209;BME280;24929;51.982;4.664;2023-02-14T01:34:58;79093.09;;;-143.36;nan
39209;BME280;24929;51.982;4.664;2023-02-14T01:37:23;79093.09;;;-143.36;nan
39209;BME280;24929;51.982;4.664;2023-02-14T01:39:49;79123.22;;;-143.36;nan
39209;BME280;24929;51.982;4.664;2023-02-14T01:42:14;79081.06;;;-143.36;nan
39209;BME280;24929;51.982;4.664;2023-02-14T01:47:07;79042.91;;;-143.36;nan
39209;BME280;24929;51.982;4.664;2023-02-14T01:49:37;79040.88;;;-143.36;nan
39209;BME280;24929;51.982;4.664;2023-02-14T01:52:11;79022.81;;;-143.36;nan
39209;BME280;24929;51.982;4.664;2023-02-14T01:57:54;79040.88;;;-143.36;nan
39209;BME280;24929;51.982;4.664;2023-02-14T02:00:21;79121.22;;;-143.36;nan
39209;BME280;24929;51.982;4.664;2023-02-14T02:03:06;79087.06;;;-143.36;nan
39209;BME280;24929;51.982;4.664;2023-02-14T02:05:33;79064.97;;;-143.36;nan
39209;BME280;24929;51.982;4.664;2023-02-14T02:08:00;79083.06;;;-143.36;nan
39209;BME280;24929;51.982;4.664;2023-02-14T02:10:26;79093.09;;;-143.36;nan
39209;BME280;24929;51.982;4.664;2023-02-14T02:12:52;79083.06;;;-143.36;nan
39209;BME280;24929;51.982;4.664;2023-02-14T02:15:19;79111.16;;;-143.36;nan
39209;BME280;24929;51.982;4.664;2023-02-14T02:23:20;79040.88;;;-143.36;nan
39209;BME280;24929;51.982;4.664;2023-02-14T02:28:57;79077.03;;;-143.36;nan
39209;BME280;24929;51.982;4.664;2023-02-14T02:37:25;79111.16;;;-143.36;nan
39209;BME280;24929;51.982;4.664;2023-02-14T02:45:46;79113.19;;;-143.36;nan
39209;BME280;24929;51.982;4.664;2023-02-14T02:48:44;79093.09;;;-143.36;nan
39209;BME280;24929;51.982;4.664;2023-02-14T02:51:19;79107.16;;;-143.36;nan
39209;BME280;24929;51.982;4.664;2023-02-14T02:54:11;79115.19;;;-143.36;nan
39209;BME280;24929;51.982;4.664;2023-02-14T02:56:47;79111.16;;;-143.36;nan
39209;BME280;24929;51.982;4.664;2023-02-14T02:59:23;79062.97;;;-143.36;nan
39209;BME280;24929;51.982;4.664;2023-02-14T03:04:20;79099.13;;;-143.36;nan
39209;BME280;24929;51.982;4.664;2023-02-14T03:07:05;79101.13;;;-143.36;nan
39209;BME280;24929;51.982;4.664;2023-02-14T03:09:57;79103.13;;;-143.36;nan
39209;BME280;24929;51.982;4.664;2023-02-14T03:12:36;79105.16;;;-143.36;nan
39209;BME280;24929;51.982;4.664;2023-02-14T03:18:01;79143.28;;;-143.36;nan
39209;BME280;24929;51.982;4.664;2023-02-14T03:20:43;79143.28;;;-143.36;nan
39209;BME280;24929;51.982;4.664;2023-02-14T03:23:19;79183.47;;;-143.36;nan
39209;BME280;24929;51.982;4.664;2023-02-14T03:25:59;79157.34;;;-143.36;nan
39209;BME280;24929;51.982;4.664;2023-02-14T03:31:07;79143.28;;;-143.36;nan
39209;BME280;24929;51.982;4.664;2023-02-14T03:36:18;79101.13;;;-143.36;nan
39209;BME280;24929;51.982;4.664;2023-02-14T03:42:01;79099.13;;;-143.36;nan
39209;BME280;24929;51.982;4.664;2023-02-14T03:44:31;79113.19;;;-143.36;nan
39209;BME280;24929;51.982;4.664;2023-02-14T03:47:03;79095.09;;;-143.36;nan
39209;BME280;24929;51.982;4.664;2023-02-14T03:49:35;79135.25;;;-143.36;nan
39209;BME280;24929;51.982;4.664;2023-02-14T03:52:02;79169.41;;;-143.36;nan
39209;BME280;24929;51.982;4.664;2023-02-14T03:54:30;79139.28;;;-143.36;nan
39209;BME280;24929;51.982;4.664;2023-02-14T03:57:07;79167.41;;;-143.36;nan
39209;BME280;24929;51.982;4.664;2023-02-14T03:59:36;79157.34;;;-143.36;nan
39209;BME280;24929;51.982;4.664;2023-02-14T04:02:28;79123.22;;;-143.36;nan
39209;BME280;24929;51.982;4.664;2023-02-14T04:04:57;79153.34;;;-143.36;nan
39209;BME280;24929;51.982;4.664;2023-02-14T04:07:24;79189.47;;;-143.36;nan
39209;BME280;24929;51.982;4.664;2023-02-14T04:09:50;79159.38;;;-143.36;nan
39209;BME280;24929;51.982;4.664;2023-02-14T04:12:16;79147.31;;;-143.36;nan
39209;BME280;24929;51.982;4.664;2023-02-14T04:14:42;79161.38;;;-143.36;nan
39209;BME280;24929;51.982;4.664;2023-02-14T04:17:07;79201.53;;;-143.36;nan
39209;BME280;24929;51.982;4.664;2023-02-14T04:19:52;79209.56;;;-143.36;nan
39209;BME280;24929;51.982;4.664;2023-02-14T04:22:17;79271.81;;;-143.36;nan
39209;BME280;24929;51.982;4.664;2023-02-14T04:24:43;79275.84;;;-143.36;nan
39209;BME280;24929;51.982;4.664;2023-02-14T04:27:08;79229.66;;;-143.36;nan
39209;BME280;24929;51.982;4.664;2023-02-14T04:32:07;79231.66;;;-143.36;nan
39209;BME280;24929;51.982;4.664;2023-02-14T04:34:33;79287.88;;;-143.36;nan
39209;BME280;24929;51.982;4.664;2023-02-14T04:36:59;79285.88;;;-143.36;nan
39209;BME280;24929;51.982;4.664;2023-02-14T04:39:24;79344.09;;;-143.36;nan
39209;BME280;24929;51.982;4.664;2023-02-14T04:41:49;79360.16;;;-143.36;nan
39209;BME280;24929;51.982;4.664;2023-02-14T04:44:15;79380.25;;;-143.36;nan
39209;BME280;24929;51.982;4.664;2023-02-14T04:46:40;79340.09;;;-143.36;nan
39209;BME280;24929;51.982;4.664;2023-02-14T04:49:05;79350.13;;;-143.36;nan
39209;BME280;24929;51.982;4.664;2023-02-14T04:51:31;79346.13;;;-143.36;nan
39209;BME280;24929;51.982;4.664;2023-02-14T04:53:56;79305.94;;;-143.36;nan
39209;BME280;24929;51.982;4.664;2023-02-14T04:56:21;79275.84;;;-143.36;nan
39209;BME280;24929;51.982;4.664;2023-02-14T04:58:47;79309.97;;;-143.36;nan
39209;BME280;24929;51.982;4.664;2023-02-14T05:01:12;79316.00;;;-143.36;nan
39209;BME280;24929;51.982;4.664;2023-02-14T05:03:37;79277.84;;;-143.36;nan
39209;BME280;24929;51.982;4.664;2023-02-14T05:06:03;79326.03;;;-143.36;nan
39209;BME280;24929;51.982;4.664;2023-02-14T05:08:28;79332.06;;;-143.36;nan
39209;BME280;24929;51.982;4.664;2023-02-14T05:10:53;79305.94;;;-143.36;nan
39209;BME280;24929;51.982;4.664;2023-02-14T05:13:19;79305.94;;;-143.36;nan
39209;BME280;24929;51.982;4.664;2023-02-14T05:15:44;79289.88;;;-143.36;nan
39209;BME280;24929;51.982;4.664;2023-02-14T05:18:10;79326.03;;;-143.36;nan
39209;BME280;24929;51.982;4.664;2023-02-14T05:20:35;79303.94;;;-143.36;nan
39209;BME280;24929;51.982;4.664;2023-02-14T05:23:01;79301.94;;;-143.36;nan
39209;BME280;24929;51.982;4.664;2023-02-14T05:25:28;79289.88;;;-143.36;nan
39209;BME280;24929;51.982;4.664;2023-02-14T05:27:55;79318.00;;;-143.36;nan
39209;BME280;24929;51.982;4.664;2023-02-14T05:30:20;79313.97;;;-143.36;nan
39209;BME280;24929;51.982;4.664;2023-02-14T05:32:52;79360.16;;;-143.36;nan
39209;BME280;24929;51.982;4.664;2023-02-14T05:35:18;79456.56;;;-143.36;nan
39209;BME280;24929;51.982;4.664;2023-02-14T05:37:43;79408.38;;;-143.36;nan
39209;BME280;24929;51.982;4.664;2023-02-14T05:40:09;79420.41;;;-143.36;nan
39209;BME280;24929;51.982;4.664;2023-02-14T05:42:37;79428.44;;;-143.36;nan
39209;BME280;24929;51.982;4.664;2023-02-14T05:45:03;79384.28;;;-143.36;nan
39209;BME280;24929;51.982;4.664;2023-02-14T05:47:29;79382.25;;;-143.36;nan
39209;BME280;24929;51.982;4.664;2023-02-14T05:49:54;79418.41;;;-143.36;nan
39209;BME280;24929;51.982;4.664;2023-02-14T05:52:19;79408.38;;;-143.36;nan
39209;BME280;24929;51.982;4.664;2023-02-14T05:54:45;79406.34;;;-143.36;nan
39209;BME280;24929;51.982;4.664;2023-02-14T05:57:10;79408.38;;;-143.36;nan
39209;BME280;24929;51.982;4.664;2023-02-14T05:59:35;79426.44;;;-143.36;nan
39209;BME280;24929;51.982;4.664;2023-02-14T06:02:01;79500.75;;;-143.36;nan
39209;BME280;24929;51.982;4.664;2023-02-14T06:04:26;79504.75;;;-143.36;nan
39209;BME280;24929;51.982;4.664;2023-02-14T06:06:51;79494.72;;;-143.36;nan
39209;BME280;24929;51.982;4.664;2023-02-14T06:09:16;79474.63;;;-143.36;nan
39209;BME280;24929;51.982;4.664;2023-02-14T06:11:44;79430.47;;;-143.36;nan
39209;BME280;24929;51.982;4.664;2023-02-14T06:14:09;79458.56;;;-143.36;nan
39209;BME280;24929;51.982;4.664;2023-02-14T06:16:34;79420.41;;;-143.36;nan
39209;BME280;24929;51.982;4.664;2023-02-14T06:19:00;79460.56;;;-143.36;nan
39209;BME280;24929;51.982;4.664;2023-02-14T06:21:25;79494.72;;;-143.36;nan
39209;BME280;24929;51.982;4.664;2023-02-14T06:23:50;79456.56;;;-143.36;nan
39209;BME280;24929;51.982;4.664;2023-02-14T06:26:16;79408.38;;;-143.36;nan
39209;BME280;24929;51.982;4.664;2023-02-14T06:28:41;79408.38;;;-143.36;nan
39209;BME280;24929;51.982;4.664;2023-02-14T06:31:07;79406.34;;;-143.36;nan
39209;BME280;24929;51.982;4.664;2023-02-14T06:33:32;79426.44;;;-143.36;nan
39209;BME280;24929;51.982;4.664;2023-02-14T06:35:58;79430.47;;;-143.36;nan
39209;BME280;24929;51.982;4.664;2023-02-14T06:38:23;79456.56;;;-143.36;nan
39209;BME280;24929;51.982;4.664;2023-02-14T06:40:48;79478.66;;;-143.36;nan
39209;BME280;24929;51.982;4.664;2023-02-14T06:43:14;79496.72;;;-143.36;nan
39209;BME280;24929;51.982;4.664;2023-02-14T06:45:39;79498.72;;;-143.36;nan
39209;BME280;24929;51.982;4.664;2023-02-14T06:48:07;79514.81;;;-143.36;nan
39209;BME280;24929;51.982;4.664;2023-02-14T06:50:34;79448.53;;;-143.36;nan
39209;BME280;24929;51.982;4.664;2023-02-14T06:52:59;79448.53;;;-143.36;nan
39209;BME280;24929;51.982;4.664;2023-02-14T06:55:24;79474.63;;;-143.36;nan
39209;BME280;24929;51.982;4.664;2023-02-14T06:57:50;79456.56;;;-143.36;nan
39209;BME280;24929;51.982;4.664;2023-02-14T07:00:15;79456.56;;;-143.36;nan
39209;BME280;24929;51.982;4.664;2023-02-14T07:02:41;79422.41;;;-143.36;nan
39209;BME280;24929;51.982;4.664;2023-02-14T07:05:06;79444.50;;;-143.36;nan
39209;BME280;24929;51.982;4.664;2023-02-14T07:07:32;79464.59;;;-143.36;nan
39209;BME280;24929;51.982;4.664;2023-02-14T07:09:57;79440.50;;;-143.36;nan
39209;BME280;24929;51.982;4.664;2023-02-14T07:12:22;79410.38;;;-143.36;nan
39209;BME280;24929;51.982;4.664;2023-02-14T07:14:48;79430.47;;;-143.36;nan
39209;BME280;24929;51.982;4.664;2023-02-14T07:17:13;79416.41;;;-143.36;nan
39209;BME280;24929;51.982;4.664;2023-02-14T07:19:38;79422.41;;;-143.36;nan
39209;BME280;24929;51.982;4.664;2023-02-14T07:22:04;79424.44;;;-143.36;nan
39209;BME280;24929;51.982;4.664;2023-02-14T07:24:29;79460.56;;;-143.36;nan
39209;BME280;24929;51.982;4.664;2023-02-14T07:26:54;79462.59;;;-143.36;nan
39209;BME280;24929;51.982;4.664;2023-02-14T07:29:20;79462.59;;;-143.36;nan
39209;BME280;24929;51.982;4.664;2023-02-14T07:35:32;79408.38;;;-143.36;nan
39209;BME280;24929;51.982;4.664;2023-02-14T07:37:58;79446.53;;;-143.36;nan
39209;BME280;24929;51.982;4.664;2023-02-14T07:40:24;79446.53;;;-143.36;nan
39209;BME280;24929;51.982;4.664;2023-02-14T07:42:56;79382.25;;;-143.36;nan
39209;BME280;24929;51.982;4.664;2023-02-14T07:45:23;79392.31;;;-143.36;nan
39209;BME280;24929;51.982;4.664;2023-02-14T07:47:50;79376.25;;;-143.36;nan
39209;BME280;24929;51.982;4.664;2023-02-14T07:50:16;79396.31;;;-143.36;nan
39209;BME280;24929;51.982;4.664;2023-02-14T07:52:41;79396.31;;;-143.36;nan
39209;BME280;24929;51.982;4.664;2023-02-14T07:55:07;79424.44;;;-143.36;nan
39209;BME280;24929;51.982;4.664;2023-02-14T07:57:32;79414.38;;;-143.36;nan
39209;BME280;24929;51.982;4.664;2023-02-14T07:59:58;79406.34;;;-143.36;nan
39209;BME280;24929;51.982;4.664;2023-02-14T08:02:23;79386.28;;;-143.36;nan
39209;BME280;24929;51.982;4.664;2023-02-14T08:04:48;79376.25;;;-143.36;nan
39209;BME280;24929;51.982;4.664;2023-02-14T08:07:14;79396.31;;;-143.36;nan
39209;BME280;24929;51.982;4.664;2023-02-14T08:09:39;79380.25;;;-143.36;nan
39209;BME280;24929;51.982;4.664;2023-02-14T08:12:04;79344.09;;;-143.36;nan
39209;BME280;24929;51.982;4.664;2023-02-14T08:14:48;79362.19;;;-143.36;nan
39209;BME280;24929;51.982;4.664;2023-02-14T08:17:14;79400.34;;;-143.36;nan
39209;BME280;24929;51.982;4.664;2023-02-14T08:19:39;79334.06;;;-143.36;nan
39209;BME280;24929;51.982;4.664;2023-02-14T08:22:05;79336.06;;;-143.36;nan
39209;BME280;24929;51.982;4.664;2023-02-14T08:24:30;79394.31;;;-143.36;nan
39209;BME280;24929;51.982;4.664;2023-02-14T08:26:56;79370.22;;;-143.36;nan
39209;BME280;24929;51.982;4.664;2023-02-14T08:29:21;79380.25;;;-143.36;nan
39209;BME280;24929;51.982;4.664;2023-02-14T08:31:47;79362.19;;;-143.36;nan
39209;BME280;24929;51.982;4.664;2023-02-14T08:34:13;79342.09;;;-143.36;nan
39209;BME280;24929;51.982;4.664;2023-02-14T08:36:39;79328.03;;;-143.36;nan
39209;BME280;24929;51.982;4.664;2023-02-14T08:39:05;79342.09;;;-143.36;nan
39209;BME280;24929;51.982;4.664;2023-02-14T08:41:30;79356.16;;;-143.36;nan
39209;BME280;24929;51.982;4.664;2023-02-14T08:43:56;79318.00;;;-143.36;nan
39209;BME280;24929;51.982;4.664;2023-02-14T08:46:21;79297.91;;;-143.36;nan
39209;BME280;24929;51.982;4.664;2023-02-14T08:48:46;79293.91;;;-143.36;nan
39209;BME280;24929;51.982;4.664;2023-02-14T08:51:14;79259.75;;;-143.36;nan
39209;BME280;24929;51.982;4.664;2023-02-14T08:53:39;79261.78;;;-143.36;nan
39209;BME280;24929;51.982;4.664;2023-02-14T08:56:10;79285.88;;;-143.36;nan
39209;BME280;24929;51.982;4.664;2023-02-14T08:58:37;79287.88;;;-143.36;nan
39209;BME280;24929;51.982;4.664;2023-02-14T09:01:10;79235.66;;;-143.36;nan
39209;BME280;24929;51.982;4.664;2023-02-14T09:03:35;79155.34;;;-143.36;nan
39209;BME280;24929;51.982;4.664;2023-02-14T09:06:06;79173.41;;;-143.36;nan
39209;BME280;24929;51.982;4.664;2023-02-14T09:08:32;79187.47;;;-143.36;nan
39209;BME280;24929;51.982;4.664;2023-02-14T09:11:05;79159.38;;;-143.36;nan
39209;BME280;24929;51.982;4.664;2023-02-14T09:13:31;79175.44;;;-143.36;nan
39209;BME280;24929;51.982;4.664;2023-02-14T09:15:56;79151.34;;;-143.36;nan
39209;BME280;24929;51.982;4.664;2023-02-14T09:18:22;79153.34;;;-143.36;nan
39209;BME280;24929;51.982;4.664;2023-02-14T09:20:47;79093.09;;;-143.36;nan
39209;BME280;24929;51.982;4.664;2023-02-14T09:23:12;79042.91;;;-143.36;nan
39209;BME280;24929;51.982;4.664;2023-02-14T09:25:37;79034.88;;;-143.36;nan
39209;BME280;24929;51.982;4.664;2023-02-14T09:35:01;78970.59;;;-143.36;nan
39209;BME280;24929;51.982;4.664;2023-02-14T09:43:47;78964.59;;;-143.36;nan
39209;BME280;24929;51.982;4.664;2023-02-14T09:49:37;78904.34;;;-143.36;nan
39209;BME280;24929;51.982;4.664;2023-02-14T09:52:05;78858.16;;;-143.36;nan
39209;BME280;24929;51.982;4.664;2023-02-14T09:54:33;78856.16;;;-143.36;nan
39209;BME280;24929;51.982;4.664;2023-02-14T10:05:12;78834.06;;;-143.36;nan
39209;BME280;24929;51.982;4.664;2023-02-14T10:07:54;78797.94;;;-143.36;nan
39209;BME280;24929;51.982;4.664;2023-02-14T10:10:39;78751.75;;;-143.36;nan
39209;BME280;24929;51.982;4.664;2023-02-14T10:13:13;78779.84;;;-143.36;nan
39209;BME280;24929;51.982;4.664;2023-02-14T10:15:48;78735.69;;;-143.36;nan
39209;BME280;24929;51.982;4.664;2023-02-14T10:18:32;78717.63;;;-143.36;nan
39209;BME280;24929;51.982;4.664;2023-02-14T10:21:03;78745.72;;;-143.36;nan
39209;BME280;24929;51.982;4.664;2023-02-14T10:24:17;78647.34;;;-143.36;nan
39209;BME280;24929;51.982;4.664;2023-02-14T10:26:47;78661.41;;;-143.36;nan
39209;BME280;24929;51.982;4.664;2023-02-14T10:29:15;78641.31;;;-143.36;nan
39209;BME280;24929;51.982;4.664;2023-02-14T10:34:50;78589.13;;;-143.36;nan
39209;BME280;24929;51.982;4.664;2023-02-14T10:37:22;78567.03;;;-143.36;nan
39209;BME280;24929;51.982;4.664;2023-02-14T11:00:22;78332.13;;;-143.36;nan
39209;BME280;24929;51.982;4.664;2023-02-14T11:02:55;78322.09;;;-143.36;nan
39209;BME280;24929;51.982;4.664;2023-02-14T11:10:50;78440.56;;;-143.36;nan
39209;BME280;24929;51.982;4.664;2023-02-14T11:13:27;78414.44;;;-143.36;nan
39209;BME280;24929;51.982;4.664;2023-02-14T11:16:00;78382.31;;;-143.36;nan
39209;BME280;24929;51.982;4.664;2023-02-14T11:18:27;78247.81;;;-143.36;nan
39209;BME280;24929;51.982;4.664;2023-02-14T11:21:14;78245.81;;;-143.36;nan
39209;BME280;24929;51.982;4.664;2023-02-14T11:23:49;78271.91;;;-143.36;nan
39209;BME280;24929;51.982;4.664;2023-02-14T11:28:57;78552.97;;;-143.36;nan
39209;BME280;24929;51.982;4.664;2023-02-14T11:31:27;78446.56;;;-143.36;nan
39209;BME280;24929;51.982;4.664;2023-02-14T11:33:54;78532.91;;;-143.36;nan
39209;BME280;24929;51.982;4.664;2023-02-14T11:36:19;78488.72;;;-143.36;nan
39209;BME280;24929;51.982;4.664;2023-02-14T11:38:54;78185.59;;;-143.36;nan
39209;BME280;24929;51.982;4.664;2023-02-14T11:41:20;78267.88;;;-143.36;nan
39209;BME280;24929;51.982;4.664;2023-02-14T11:43:45;78209.66;;;-143.36;nan
39209;BME280;24929;51.982;4.664;2023-02-14T11:46:14;78241.78;;;-143.36;nan
39209;BME280;24929;51.982;4.664;2023-02-14T11:48:54;78211.69;;;-143.36;nan
39209;BME280;24929;51.982;4.664;2023-02-14T11:51:27;78201.66;;;-143.36;nan
39209;BME280;24929;51.982;4.664;2023-02-14T11:53:55;78177.56;;;-143.36;nan
39209;BME280;24929;51.982;4.664;2023-02-14T11:56:45;78137.41;;;-143.36;nan
39209;BME280;24929;51.982;4.664;2023-02-14T11:59:28;78205.66;;;-143.36;nan
39209;BME280;24929;51.982;4.664;2023-02-14T12:01:57;78197.63;;;-143.36;nan
39209;BME280;24929;51.982;4.664;2023-02-14T12:04:33;78157.47;;;-143.36;nan
39209;BME280;24929;51.982;4.664;2023-02-14T12:09:42;78247.81;;;-143.36;nan
39209;BME280;24929;51.982;4.664;2023-02-14T12:12:18;78418.47;;;-143.36;nan
39209;BME280;24929;51.982;4.664;2023-02-14T12:14:44;78380.31;;;-143.36;nan
39209;BME280;24929;51.982;4.664;2023-02-14T12:22:15;78223.72;;;-143.36;nan
39209;BME280;24929;51.982;4.664;2023-02-14T12:30:20;77884.47;;;-143.36;nan
39209;BME280;24929;51.982;4.664;2023-02-14T12:32:48;77924.59;;;-143.36;nan
39209;BME280;24929;51.982;4.664;2023-02-14T12:35:17;77886.47;;;-143.36;nan
39209;BME280;24929;51.982;4.664;2023-02-14T12:40:49;77739.94;;;-143.36;nan
39209;BME280;24929;51.982;4.664;2023-02-14T12:46:24;78089.22;;;-143.36;nan
39209;BME280;24929;51.982;4.664;2023-02-14T12:54:44;78006.91;;;-143.36;nan
39209;BME280;24929;51.982;4.664;2023-02-14T13:00:32;77892.50;;;-143.36;nan
39209;BME280;24929;51.982;4.664;2023-02-14T13:21:41;78191.59;;;-143.36;nan
39209;BME280;24929;51.982;4.664;2023-02-14T13:26:41;77663.66;;;-143.36;nan
39209;BME280;24929;51.982;4.664;2023-02-14T13:29:19;77729.88;;;-143.36;nan
39209;BME280;24929;51.982;4.664;2023-02-14T13:31:48;77772.03;;;-143.36;nan
39209;BME280;24929;51.982;4.664;2023-02-14T13:34:37;77760.00;;;-143.36;nan
39209;BME280;24929;51.982;4.664;2023-02-14T13:37:07;77675.69;;;-143.36;nan
39209;BME280;24929;51.982;4.664;2023-02-14T13:40:05;77621.50;;;-143.36;nan
39209;BME280;24929;51.982;4.664;2023-02-14T13:48:22;77513.09;;;-143.36;nan
39209;BME280;24929;51.982;4.664;2023-02-14T13:50:53;77681.72;;;-143.36;nan
39209;BME280;24929;51.982;4.664;2023-02-14T13:53:42;77601.44;;;-143.36;nan
39209;BME280;24929;51.982;4.664;2023-02-14T13:58:57;77601.44;;;-143.36;nan
39209;BME280;24929;51.982;4.664;2023-02-14T14:01:35;77591.38;;;-143.36;nan
39209;BME280;24929;51.982;4.664;2023-02-14T14:04:06;77661.66;;;-143.36;nan
39209;BME280;24929;51.982;4.664;2023-02-14T14:15:11;77705.81;;;-143.36;nan
39209;BME280;24929;51.982;4.664;2023-02-14T14:17:38;77689.75;;;-143.36;nan
39209;BME280;24929;51.982;4.664;2023-02-14T14:22:54;77551.25;;;-143.36;nan
39209;BME280;24929;51.982;4.664;2023-02-14T14:25:38;77595.41;;;-143.36;nan
39209;BME280;24929;51.982;4.664;2023-02-14T14:28:17;77637.56;;;-143.36;nan
39209;BME280;24929;51.982;4.664;2023-02-14T14:43:37;77685.72;;;-143.36;nan
39209;BME280;24929;51.982;4.664;2023-02-14T14:46:07;77725.88;;;-143.36;nan
39209;BME280;24929;51.982;4.664;2023-02-14T14:48:38;77691.75;;;-143.36;nan
39209;BME280;24929;51.982;4.664;2023-02-14T14:51:13;77685.72;;;-143.36;nan
39209;BME280;24929;51.982;4.664;2023-02-14T14:53:58;77766.03;;;-143.36;nan
39209;BME280;24929;51.982;4.664;2023-02-14T14:56:26;77778.06;;;-143.36;nan
39209;BME280;24929;51.982;4.664;2023-02-14T14:58:53;77721.88;;;-143.36;nan
39209;BME280;24929;51.982;4.664;2023-02-14T15:01:35;77762.00;;;-143.36;nan
39209;BME280;24929;51.982;4.664;2023-02-14T15:06:34;77701.78;;;-143.36;nan
39209;BME280;24929;51.982;4.664;2023-02-14T15:09:18;77673.69;;;-143.36;nan
39209;BME280;24929;51.982;4.664;2023-02-14T15:11:45;77723.88;;;-143.36;nan
39209;BME280;24929;51.982;4.664;2023-02-14T15:14:33;77711.81;;;-143.36;nan
39209;BME280;24929;51.982;4.664;2023-02-14T15:17:02;77731.91;;;-143.36;nan
39209;BME280;24929;51.982;4.664;2023-02-14T15:19:36;77699.78;;;-143.36;nan
39209;BME280;24929;51.982;4.664;2023-02-14T15:22:24;77717.84;;;-143.36;nan
39209;BME280;24929;51.982;4.664;2023-02-14T15:28:30;77828.25;;;-143.36;nan
39209;BME280;24929;51.982;4.664;2023-02-14T15:31:01;77808.19;;;-143.36;nan
39209;BME280;24929;51.982;4.664;2023-02-14T15:33:29;77760.00;;;-143.36;nan
39209;BME280;24929;51.982;4.664;2023-02-14T15:35:57;77820.22;;;-143.36;nan
39209;BME280;24929;51.982;4.664;2023-02-14T15:38:25;77950.69;;;-143.36;nan
39209;BME280;24929;51.982;4.664;2023-02-14T15:40:51;78041.03;;;-143.36;nan
39209;BME280;24929;51.982;4.664;2023-02-14T15:45:47;77878.44;;;-143.36;nan
39209;BME280;24929;51.982;4.664;2023-02-14T15:48:17;77790.13;;;-143.36;nan
39209;BME280;24929;51.982;4.664;2023-02-14T15:50:49;77844.31;;;-143.36;nan
39209;BME280;24929;51.982;4.664;2023-02-14T15:56:26;77679.72;;;-143.36;nan
39209;BME280;24929;51.982;4.664;2023-02-14T15:59:06;77679.72;;;-143.36;nan
39209;BME280;24929;51.982;4.664;2023-02-14T16:01:36;77776.06;;;-143.36;nan
39209;BME280;24929;51.982;4.664;2023-02-14T16:04:03;77832.25;;;-143.36;nan
39209;BME280;24929;51.982;4.664;2023-02-14T16:06:30;77850.34;;;-143.36;nan
39209;BME280;24929;51.982;4.664;2023-02-14T16:08:57;77866.38;;;-143.36;nan
39209;BME280;24929;51.982;4.664;2023-02-14T16:11:28;77780.06;;;-143.36;nan
39209;BME280;24929;51.982;4.664;2023-02-14T16:13:55;77852.34;;;-143.36;nan
39209;BME280;24929;51.982;4.664;2023-02-14T16:16:20;77862.38;;;-143.36;nan
39209;BME280;24929;51.982;4.664;2023-02-14T16:18:51;77828.25;;;-143.36;nan
39209;BME280;24929;51.982;4.664;2023-02-14T16:21:23;77848.31;;;-143.36;nan
39209;BME280;24929;51.982;4.664;2023-02-14T16:24:12;77850.34;;;-143.36;nan
39209;BME280;24929;51.982;4.664;2023-02-14T16:26:39;77902.53;;;-143.36;nan
39209;BME280;24929;51.982;4.664;2023-02-14T16:29:10;77976.81;;;-143.36;nan